Time;durP1;ratioP1;P1;durP2;ratioP2;P2;SDS_P1;SDS_P2;PMS_P1;PMS_P2;Temp;Humidity;BMP_temperature;BMP_pressure;BME280_temperature;BME280_humidity;BME280_pressure;Samples;Min_cycle;Max_cycle;Signal;HPM_P1;HPM_P2
2021/12/05 00:22:54;;;;;;;13.82;1.98;;;;;;;8.71;62.34;99192.72;5001794;28;20072;-95
2021/12/05 00:25:27;;;;;;;9.50;1.60;;;;;;;8.49;61.95;99187.50;4984970;28;20034;-96
2021/12/05 00:28:16;;;;;;;11.77;1.85;;;;;;;8.98;61.73;99194.06;4970169;28;20041;-95
2021/12/05 00:52:17;;;;;;;11.85;1.98;;;;;;;9.05;61.49;99200.47;4988760;28;20030;-95
2021/12/05 00:57:36;;;;;;;10.07;1.95;;;;;;;9.35;60.33;99206.78;4994450;28;20054;-95
2021/12/05 01:07:58;;;;;;;9.93;1.27;;;;;;;9.14;61.00;99188.41;4990762;28;20033;-95
2021/12/05 01:15:56;;;;;;;10.75;1.95;;;;;;;9.42;60.21;99202.72;5003728;28;20033;-96
2021/12/05 01:18:22;;;;;;;7.65;1.85;;;;;;;9.40;60.40;99199.41;4983941;28;20061;-96
2021/12/05 01:20:52;;;;;;;10.52;1.50;;;;;;;9.25;60.71;99206.72;4973678;28;20049;-96
2021/12/05 01:25:56;;;;;;;7.53;1.83;;;;;;;9.42;59.82;99202.72;4998394;28;20531;-96
2021/12/05 01:31:30;;;;;;;6.07;1.45;;;;;;;9.27;60.59;99214.44;4989631;28;20041;-96
2021/12/05 01:34:09;;;;;;;8.20;1.77;;;;;;;9.60;59.45;99215.28;4986589;28;19998;-96
2021/12/05 01:37:24;;;;;;;6.47;1.42;;;;;;;9.58;59.32;99209.28;4999928;28;20567;-96
2021/12/05 01:58:15;;;;;;;7.75;1.35;;;;;;;9.84;58.34;99202.72;5002681;28;20070;-96
2021/12/05 02:01:26;;;;;;;9.40;1.50;;;;;;;9.28;59.23;99213.47;4984666;28;20026;-95
2021/12/05 02:09:45;;;;;;;6.40;1.33;;;;;;;9.89;57.98;99234.63;5001708;28;20027;-95
2021/12/05 02:15:10;;;;;;;6.07;1.00;;;;;;;9.69;58.04;99238.06;4997094;28;20035;-95
2021/12/05 02:32:15;;;;;;;8.98;1.25;;;;;;;9.88;57.92;99274.09;5009417;28;20029;-96
2021/12/05 02:35:00;;;;;;;10.23;1.10;;;;;;;9.92;57.82;99276.31;4996551;28;20134;-95
2021/12/05 02:37:33;;;;;;;8.00;1.13;;;;;;;10.08;57.69;99282.91;5000274;28;20023;-95
2021/12/05 02:42:33;;;;;;;7.65;1.10;;;;;;;9.92;57.82;99297.28;5005793;28;20038;-95
2021/12/05 02:45:02;;;;;;;9.27;1.02;;;;;;;10.11;56.95;99287.88;5000755;28;20034;-94
2021/12/05 02:47:29;;;;;;;5.63;1.00;;;;;;;10.21;57.12;99288.78;4965134;28;20054;-96
2021/12/05 02:49:59;;;;;;;5.75;1.10;;;;;;;10.15;57.10;99301.56;4993388;28;20034;-95
2021/12/05 02:52:31;;;;;;;3.75;1.02;;;;;;;9.99;57.62;99288.91;4987589;28;20034;-95
2021/12/05 02:54:58;;;;;;;;;;;;;;;10.16;57.00;99293.59;4994356;28;20026;-95
2021/12/05 02:57:50;;;;;;;7.70;1.00;;;;;;;9.95;57.43;99279.66;4994599;28;20371;-95
2021/12/05 03:00:38;;;;;;;5.90;0.90;;;;;;;10.24;57.16;99288.53;4995251;28;20041;-95
2021/12/05 03:03:16;;;;;;;13.93;1.90;;;;;;;10.00;57.16;99291.41;4976657;28;20386;-96
2021/12/05 03:05:48;;;;;;;5.15;0.95;;;;;;;10.25;57.06;99286.75;4993274;28;20099;-96
2021/12/05 03:08:15;;;;;;;8.80;1.08;;;;;;;10.30;57.02;99290.66;5000129;28;20027;-96
2021/12/05 03:10:41;;;;;;;6.57;1.05;;;;;;;10.27;57.16;99304.03;4998801;28;20034;-96
2021/12/05 03:13:07;;;;;;;9.65;1.08;;;;;;;10.38;56.53;99300.50;4992103;28;20102;-95
2021/12/05 03:15:32;;;;;;;12.13;2.38;;;;;;;10.46;56.26;99302.47;4989769;28;20034;-96
2021/12/05 03:17:58;;;;;;;5.72;1.30;;;;;;;10.37;56.52;99298.84;4989340;28;20076;-96
2021/12/05 03:20:24;;;;;;;9.13;1.25;;;;;;;10.35;56.59;99299.94;4988674;28;20469;-95
2021/12/05 03:22:51;;;;;;;7.40;0.85;;;;;;;10.60;56.10;99312.63;4983816;28;20041;-96
2021/12/05 03:25:17;;;;;;;6.30;0.90;;;;;;;10.57;56.09;99305.03;4983778;28;20073;-96
2021/12/05 03:27:42;;;;;;;7.80;1.00;;;;;;;10.54;57.07;99297.41;4987962;28;20030;-96
2021/12/05 03:30:11;;;;;;;5.38;0.95;;;;;;;10.57;56.45;99312.09;4993353;28;20021;-95
2021/12/05 03:32:38;;;;;;;6.43;1.90;;;;;;;10.60;55.66;99314.44;4991770;28;20031;-96
2021/12/05 03:35:06;;;;;;;9.77;1.23;;;;;;;10.49;56.01;99310.09;4994126;28;20128;-96
2021/12/05 03:37:33;;;;;;;7.25;1.10;;;;;;;10.41;56.52;99316.00;4989698;28;20068;-95
2021/12/05 03:39:59;;;;;;;13.55;1.17;;;;;;;10.29;56.18;99319.63;4994208;28;20037;-96
2021/12/05 03:42:24;;;;;;;4.03;0.93;;;;;;;10.42;56.13;99329.94;4992686;28;20034;-96
2021/12/05 03:44:55;;;;;;;8.25;1.52;;;;;;;10.33;56.21;99334.19;5009580;28;20026;-95
2021/12/05 03:47:21;;;;;;;9.57;1.13;;;;;;;10.30;56.03;99327.38;5010955;28;20057;-96
2021/12/05 03:49:48;;;;;;;5.10;1.08;;;;;;;10.54;55.70;99330.69;5006170;28;20291;-95
2021/12/05 03:52:16;;;;;;;9.43;1.10;;;;;;;10.61;55.62;99331.84;5004433;28;20035;-96
2021/12/05 03:54:46;;;;;;;11.15;1.10;;;;;;;10.39;56.05;99345.97;4994368;28;20049;-96
2021/12/05 03:57:14;;;;;;;7.22;1.10;;;;;;;10.60;55.34;99343.28;5002933;28;20074;-96
2021/12/05 03:59:44;;;;;;;10.15;1.33;;;;;;;10.65;55.45;99347.19;5017244;28;20053;-96
2021/12/05 04:02:18;;;;;;;5.13;1.30;;;;;;;10.69;55.59;99350.41;5001271;28;20026;-96
2021/12/05 04:04:53;;;;;;;7.60;1.35;;;;;;;10.45;55.93;99342.81;5002289;28;20033;-96
2021/12/05 04:07:31;;;;;;;8.52;1.17;;;;;;;10.63;55.63;99348.31;5016498;28;20026;-96
2021/12/05 04:10:18;;;;;;;6.55;1.25;;;;;;;10.79;55.97;99355.69;4999136;28;20142;-96
2021/12/05 04:12:45;;;;;;;10.88;1.40;;;;;;;10.80;55.73;99352.94;5009885;28;20018;-96
2021/12/05 04:15:24;;;;;;;5.45;1.15;;;;;;;10.57;55.94;99352.28;4999180;28;20102;-96
2021/12/05 04:17:50;;;;;;;6.78;1.25;;;;;;;10.54;56.67;99351.69;4998768;28;20035;-96
2021/12/05 04:20:24;;;;;;;3.65;0.80;;;;;;;10.79;55.85;99351.28;5016336;28;20030;-96
2021/12/05 04:22:51;;;;;;;8.63;1.05;;;;;;;10.60;55.80;99346.75;4997677;28;20064;-96
2021/12/05 04:25:18;;;;;;;7.45;1.10;;;;;;;10.41;56.18;99354.53;5008886;28;20057;-96
2021/12/05 04:28:26;;;;;;;5.25;1.15;;;;;;;10.31;56.45;99363.16;4980315;28;20049;-96
2021/12/05 04:30:51;;;;;;;5.05;0.88;;;;;;;10.61;55.64;99364.19;4994817;28;20038;-95
2021/12/05 04:33:25;;;;;;;5.72;0.95;;;;;;;10.77;55.40;99368.13;5000926;28;20018;-96
2021/12/05 04:36:01;;;;;;;4.13;0.73;;;;;;;10.68;55.75;99370.56;4997548;28;20026;-96
2021/12/05 04:38:29;;;;;;;9.77;1.00;;;;;;;10.68;55.55;99367.09;5001696;28;20045;-95
2021/12/05 04:41:00;;;;;;;6.07;1.13;;;;;;;10.41;56.47;99354.53;5010764;28;20089;-96
2021/12/05 04:44:12;;;;;;;10.73;1.75;;;;;;;10.77;55.31;99368.13;4981792;28;20042;-96
2021/12/05 04:46:40;;;;;;;9.88;1.55;;;;;;;10.59;55.79;99381.84;4973136;28;20456;-95
2021/12/05 04:49:07;;;;;;;4.57;1.13;;;;;;;10.60;55.80;99378.25;4988745;28;20042;-96
2021/12/05 04:51:39;;;;;;;7.88;1.20;;;;;;;10.75;55.17;99372.69;4993344;28;20031;-96
2021/12/05 04:54:08;;;;;;;9.10;1.00;;;;;;;10.51;55.50;99364.13;5042794;23;20066;-96
2021/12/05 04:56:34;;;;;;;5.50;0.90;;;;;;;10.64;55.18;99373.56;4987293;28;20692;-96
2021/12/05 04:59:03;;;;;;;7.18;1.15;;;;;;;10.28;55.96;99379.13;4989684;28;20078;-96
2021/12/05 05:01:29;;;;;;;4.38;0.88;;;;;;;10.48;55.44;99377.47;4991750;28;20046;-95
2021/12/05 05:03:55;;;;;;;2.92;0.57;;;;;;;10.69;54.88;99393.22;4994515;28;20070;-96
2021/12/05 05:06:23;;;;;;;8.25;1.05;;;;;;;10.50;55.65;99403.59;4995996;28;20050;-96
2021/12/05 05:08:53;;;;;;;4.63;1.00;;;;;;;10.30;56.15;99387.72;4984077;28;20027;-96
2021/12/05 05:11:21;;;;;;;8.32;1.55;;;;;;;9.62;57.11;99381.91;4992036;28;20042;-96
2021/12/05 05:13:48;;;;;;;7.88;1.50;;;;;;;10.31;55.99;99393.84;4997836;28;20030;-96
2021/12/05 05:16:16;;;;;;;7.55;0.88;;;;;;;10.24;56.03;99387.38;4986511;28;20038;-95
2021/12/05 05:18:53;;;;;;;4.93;0.98;;;;;;;10.23;56.42;99404.94;4993903;28;20037;-96
2021/12/05 05:27:11;;;;;;;9.45;0.90;;;;;;;10.35;56.22;99410.97;4972367;28;20027;-95
2021/12/05 05:30:41;;;;;;;7.90;0.98;;;;;;;10.32;56.06;99419.09;4992411;28;20031;-96
2021/12/05 05:50:56;;;;;;;3.15;0.80;;;;;;;10.74;55.23;99466.34;4986841;28;20015;-96
2021/12/05 05:53:22;;;;;;;9.05;0.70;;;;;;;10.73;54.71;99475.19;4991236;28;20039;-94
2021/12/05 05:55:49;;;;;;;4.38;1.00;;;;;;;10.86;54.37;99473.22;5005395;28;20109;-95
2021/12/05 05:58:16;;;;;;;5.70;1.67;;;;;;;10.73;54.67;99471.75;4989753;28;20506;-96
2021/12/05 06:01:02;;;;;;;8.23;0.73;;;;;;;10.82;54.78;99489.34;4985134;28;20031;-96
2021/12/05 06:03:29;;;;;;;4.95;0.63;;;;;;;10.76;54.85;99471.47;4982941;28;20412;-96
2021/12/05 06:06:09;;;;;;;7.00;1.10;;;;;;;10.82;54.77;99498.06;4984645;28;20022;-95
2021/12/05 06:08:37;;;;;;;3.40;0.50;;;;;;;10.85;54.85;99491.72;4980654;28;20117;-95
2021/12/05 06:11:09;;;;;;;8.60;1.73;;;;;;;11.00;55.18;99513.22;4983850;28;20048;-96
2021/12/05 06:13:36;;;;;;;2.20;0.73;;;;;;;10.96;55.51;99519.69;4983617;28;20121;-95
2021/12/05 06:16:02;;;;;;;8.30;0.80;;;;;;;11.09;55.51;99515.09;4994508;28;20027;-96
2021/12/05 06:18:28;;;;;;;5.03;0.70;;;;;;;10.75;56.35;99511.84;4989642;28;20099;-96
2021/12/05 06:20:55;;;;;;;4.82;0.50;;;;;;;10.99;56.30;99522.91;4989294;28;20060;-96
2021/12/05 06:23:22;;;;;;;3.75;0.50;;;;;;;11.06;56.39;99547.72;4989595;28;20014;-96
2021/12/05 06:25:50;;;;;;;8.30;0.88;;;;;;;10.86;56.67;99528.38;4992699;28;20027;-96
2021/12/05 06:28:23;;;;;;;4.50;0.60;;;;;;;10.90;57.05;99536.81;4994607;28;20030;-96
2021/12/05 06:30:56;;;;;;;5.22;0.85;;;;;;;10.82;57.26;99547.97;4988620;28;20031;-95
2021/12/05 06:48:50;;;;;;;3.15;0.40;;;;;;;9.93;60.64;99576.94;5021002;28;20054;-96
2021/12/05 06:51:22;;;;;;;1.73;0.30;;;;;;;10.13;60.14;99587.63;5008704;28;20543;-96
2021/12/05 06:53:48;;;;;;;1.58;0.40;;;;;;;9.76;61.67;99598.38;5007789;28;20037;-95
2021/12/05 06:56:14;;;;;;;1.02;0.43;;;;;;;9.48;62.37;99594.44;5015955;28;20498;-96
2021/12/05 06:58:40;;;;;;;4.15;1.00;;;;;;;9.86;62.32;99609.00;5012321;28;20030;-95
2021/12/05 07:01:09;;;;;;;4.13;0.40;;;;;;;9.72;62.80;99603.03;5010895;28;20026;-96
2021/12/05 07:03:35;;;;;;;1.10;0.60;;;;;;;9.72;62.94;99612.69;5017320;28;20387;-96
2021/12/05 07:08:31;;;;;;;3.08;0.43;;;;;;;9.67;62.59;99604.31;5016853;28;20026;-96
2021/12/05 07:14:01;;;;;;;2.15;0.57;;;;;;;10.04;61.74;99630.31;5009198;28;20034;-96
2021/12/05 07:42:41;;;;;;;7.20;0.40;;;;;;;9.82;61.24;99665.25;5003969;28;20072;-96
2021/12/05 07:45:10;;;;;;;0.82;0.30;;;;;;;9.85;61.17;99681.56;5010610;28;20025;-96
2021/12/05 07:47:38;;;;;;;6.35;0.70;;;;;;;9.81;61.30;99680.13;5016166;28;20048;-95
2021/12/05 07:50:08;;;;;;;6.15;0.90;;;;;;;9.50;62.20;99677.22;5020505;28;20036;-96
2021/12/05 07:52:37;;;;;;;2.63;0.70;;;;;;;9.39;61.65;99674.56;5015093;28;20032;-95
2021/12/05 07:55:13;;;;;;;3.67;1.08;;;;;;;9.62;61.50;99685.09;5022014;28;20045;-96
2021/12/05 08:16:41;;;;;;;7.70;0.77;;;;;;;9.49;60.48;99695.66;5013837;28;20037;-95
2021/12/05 08:19:06;;;;;;;3.88;1.00;;;;;;;9.47;60.45;99697.56;4998266;28;20392;-95
2021/12/05 08:21:32;;;;;;;1.70;0.50;;;;;;;9.40;60.70;99706.81;5024079;28;20009;-96
2021/12/05 08:23:58;;;;;;;2.15;1.13;;;;;;;9.28;60.93;99709.41;5030095;28;20041;-96
2021/12/05 08:26:30;;;;;;;6.40;0.60;;;;;;;9.34;60.51;99708.13;5031694;28;20093;-96
2021/12/05 08:29:03;;;;;;;5.15;0.57;;;;;;;9.15;59.98;99708.63;5033524;22;1326420;-96
2021/12/05 09:28:23;;;;;;;1.38;0.52;;;;;;;10.08;58.79;99837.16;4980454;28;20532;-93
2021/12/05 09:39:35;;;;;;;1.38;0.40;;;;;;;10.24;58.23;99865.72;4985489;28;20519;-96
2021/12/05 09:53:30;;;;;;;2.80;0.50;;;;;;;10.61;58.45;99883.97;4995598;28;20127;-96
2021/12/05 10:06:49;;;;;;;2.83;0.90;;;;;;;11.59;56.94;99901.72;4998821;28;20092;-96
2021/12/05 10:15:22;;;;;;;3.15;0.60;;;;;;;11.65;55.70;99924.03;5003510;28;20041;-96
2021/12/05 10:17:54;;;;;;;4.85;0.90;;;;;;;11.94;55.89;99920.88;4996417;28;20525;-96
2021/12/05 10:35:37;;;;;;;4.05;0.80;;;;;;;11.51;55.44;99947.03;4983247;28;20050;-90
2021/12/05 10:38:08;;;;;;;5.97;1.33;;;;;;;11.31;56.33;99945.13;4995321;28;20026;-89
2021/12/05 10:40:47;;;;;;;4.38;0.90;;;;;;;11.08;56.34;99945.13;4994326;28;20027;-89
2021/12/05 10:43:18;;;;;;;6.38;1.08;;;;;;;11.30;56.43;99948.72;4994557;28;20053;-89
2021/12/05 10:45:47;;;;;;;6.60;1.63;;;;;;;10.66;57.21;99955.34;4992858;28;20030;-90
2021/12/05 10:48:32;;;;;;;6.75;0.98;;;;;;;11.12;56.76;99950.97;4992912;28;20498;-89
2021/12/05 10:51:02;;;;;;;4.60;1.13;;;;;;;11.19;56.61;99951.34;4987195;28;20034;-90
2021/12/05 10:53:27;;;;;;;5.38;0.88;;;;;;;11.37;55.99;99952.50;4994424;28;20030;-89
2021/12/05 10:56:07;;;;;;;37.67;9.75;;;;;;;11.51;55.94;99952.28;4994186;28;20033;-93
2021/12/05 10:58:56;;;;;;;5.55;0.95;;;;;;;11.53;55.57;99949.50;4994092;28;20030;-91
2021/12/05 11:01:45;;;;;;;6.35;1.08;;;;;;;11.48;55.91;99954.31;4977333;28;20085;-93
2021/12/05 11:04:20;;;;;;;6.97;1.17;;;;;;;11.51;56.17;99956.69;4969580;28;20436;-92
2021/12/05 11:06:52;;;;;;;5.13;1.08;;;;;;;11.35;56.07;99953.59;4988952;28;20110;-90
2021/12/05 11:09:33;;;;;;;3.83;1.10;;;;;;;11.38;55.18;99961.25;4977834;28;20057;-91
2021/12/05 11:12:08;;;;;;;7.30;1.20;;;;;;;11.50;54.87;99962.91;4995376;28;20030;-93
2021/12/05 11:14:46;;;;;;;6.00;1.30;;;;;;;11.84;54.11;99957.59;4994875;28;20030;-91
2021/12/05 11:17:14;;;;;;;3.78;1.17;;;;;;;11.38;54.30;99956.81;4994861;28;20026;-91
2021/12/05 11:19:46;;;;;;;5.80;0.90;;;;;;;11.54;54.25;99961.72;4994763;28;20113;-90
2021/12/05 11:22:15;;;;;;;6.72;1.25;;;;;;;11.57;53.71;99958.00;4978803;28;20089;-90
2021/12/05 11:24:44;;;;;;;5.78;0.98;;;;;;;11.51;53.40;99960.16;4986313;28;20034;-88
2021/12/05 11:27:14;;;;;;;5.25;1.23;;;;;;;11.75;53.61;99961.81;4994387;28;20026;-88
2021/12/05 11:29:52;;;;;;;7.45;1.08;;;;;;;11.94;53.41;99968.25;4990197;28;20026;-88
2021/12/05 11:32:27;;;;;;;4.63;2.10;;;;;;;11.72;53.37;99959.41;4993670;28;20056;-88
2021/12/05 11:34:52;;;;;;;8.90;1.50;;;;;;;11.84;53.09;99971.56;4990300;28;20084;-88
2021/12/05 11:37:18;;;;;;;5.53;1.00;;;;;;;11.84;53.16;99974.22;4990777;28;20431;-88
2021/12/05 11:39:43;;;;;;;5.43;0.88;;;;;;;11.90;53.27;99986.06;4983506;28;20046;-89
2021/12/05 11:42:20;;;;;;;5.22;0.70;;;;;;;11.55;53.50;99983.56;4975046;28;20027;-90
2021/12/05 11:44:49;;;;;;;6.85;0.90;;;;;;;11.27;54.01;99988.34;4992853;28;20026;-90
2021/12/05 11:47:20;;;;;;;7.70;0.90;;;;;;;11.22;53.89;99982.66;4976111;28;20485;-88
2021/12/05 11:49:46;;;;;;;11.25;1.10;;;;;;;11.10;54.17;99990.50;4974959;28;20045;-89
2021/12/05 11:52:13;;;;;;;6.28;0.80;;;;;;;11.37;53.84;99996.38;4990216;28;20057;-89
2021/12/05 11:54:46;;;;;;;5.20;0.75;;;;;;;11.47;53.56;99992.91;4988289;28;20027;-89
2021/12/05 11:57:25;;;;;;;3.45;0.88;;;;;;;11.66;53.19;100002.81;4994175;28;20116;-91
2021/12/05 12:00:05;;;;;;;8.90;1.13;;;;;;;11.88;52.73;100007.19;4988620;28;20027;-89
2021/12/05 12:02:37;;;;;;;5.32;0.90;;;;;;;11.93;53.38;99998.13;4991695;28;20152;-93
2021/12/05 12:05:17;;;;;;;4.50;0.80;;;;;;;11.77;53.23;100012.50;4986174;28;20030;-92
2021/12/05 12:08:02;;;;;;;11.60;1.40;;;;;;;11.73;53.42;100010.22;4993389;28;20053;-94
2021/12/05 12:10:32;;;;;;;6.63;1.17;;;;;;;11.42;54.05;100021.34;4991140;28;20027;-91
2021/12/05 12:13:10;;;;;;;7.90;1.23;;;;;;;11.51;54.41;100025.03;4975705;28;20027;-91
2021/12/05 12:15:39;;;;;;;4.63;0.63;;;;;;;11.33;54.20;100032.56;4989853;28;20034;-92
2021/12/05 12:18:18;;;;;;;3.83;0.82;;;;;;;11.13;53.97;100017.50;4993847;28;20539;-91
2021/12/05 12:20:46;;;;;;;4.82;0.95;;;;;;;11.49;53.84;100037.47;4984083;28;20033;-93
2021/12/05 12:23:15;;;;;;;5.32;1.08;;;;;;;11.68;53.61;100029.00;4993598;28;20034;-90
2021/12/05 12:25:44;;;;;;;9.50;1.67;;;;;;;11.34;54.10;100023.75;4992461;28;20034;-91
2021/12/05 12:28:11;;;;;;;6.90;1.00;;;;;;;11.47;54.04;100023.59;4992331;28;20037;-92
2021/12/05 12:30:40;;;;;;;3.90;0.88;;;;;;;11.45;53.85;100030.78;4994085;28;20060;-92
2021/12/05 12:33:13;;;;;;;3.95;0.80;;;;;;;11.52;53.37;100026.72;4992852;28;20084;-93
2021/12/05 12:35:43;;;;;;;3.40;0.85;;;;;;;11.61;53.87;100040.94;4987895;28;20037;-92
2021/12/05 12:38:14;;;;;;;9.85;1.75;;;;;;;11.36;54.25;100036.78;4993377;28;20102;-93
2021/12/05 12:40:42;;;;;;;8.85;1.38;;;;;;;11.41;54.12;100030.19;4992997;28;20041;-92
2021/12/05 12:43:29;;;;;;;5.10;1.05;;;;;;;11.28;54.16;100032.94;4988849;28;20034;-93
2021/12/05 12:45:55;;;;;;;8.77;1.40;;;;;;;11.54;53.79;100035.34;4972693;28;20038;-91
2021/12/05 12:48:28;;;;;;;4.78;0.77;;;;;;;11.08;54.47;100039.72;4986254;28;20473;-90
2021/12/05 12:50:54;;;;;;;5.20;1.02;;;;;;;11.49;53.76;100043.59;4990721;28;20034;-91
2021/12/05 12:53:21;;;;;;;4.05;0.95;;;;;;;11.65;53.85;100052.88;4991485;28;20045;-90
2021/12/05 12:55:57;;;;;;;4.97;1.08;;;;;;;11.41;54.10;100040.69;4992528;28;20381;-91
2021/12/05 12:58:57;;;;;;;6.35;1.30;;;;;;;11.40;53.81;100052.19;4989951;28;20022;-92
2021/12/05 13:10:08;;;;;;;5.40;1.00;;;;;;;11.30;53.63;100074.88;4982289;28;20046;-91
2021/12/05 13:12:40;;;;;;;9.98;1.40;;;;;;;11.41;53.71;100082.75;4988459;28;20093;-91
2021/12/05 13:15:20;;;;;;;5.72;0.98;;;;;;;11.47;53.58;100087.56;4990467;28;20379;-91
2021/12/05 13:17:51;;;;;;;5.72;1.05;;;;;;;11.67;53.46;100074.66;4987829;28;20034;-90
2021/12/05 13:20:29;;;;;;;8.83;0.97;;;;;;;11.68;53.24;100079.78;4991095;28;20034;-91
2021/12/05 13:23:06;;;;;;;6.05;0.85;;;;;;;11.10;54.18;100058.81;4987475;28;20295;-92
2021/12/05 13:25:36;;;;;;;10.02;1.08;;;;;;;11.14;54.08;100069.09;4989987;28;20030;-91
2021/12/05 13:28:29;;;;;;;10.18;0.90;;;;;;;11.32;54.24;100065.91;4992851;28;20469;-91
2021/12/05 13:30:55;;;;;;;4.82;0.85;;;;;;;11.45;54.10;100052.66;4989148;28;20038;-91
2021/12/05 13:33:25;;;;;;;10.55;1.25;;;;;;;11.25;54.67;100074.38;4992838;28;20030;-91
2021/12/05 13:35:57;;;;;;;5.40;0.85;;;;;;;10.86;54.61;100071.16;4992528;28;20061;-91
2021/12/05 13:38:30;;;;;;;4.43;0.80;;;;;;;11.42;54.19;100079.19;4993231;28;20030;-91
2021/12/05 13:41:08;;;;;;;4.22;0.68;;;;;;;11.44;53.73;100093.03;4993222;28;20420;-91
2021/12/05 13:43:34;;;;;;;5.90;0.90;;;;;;;11.42;53.44;100094.94;4992968;28;20037;-91
2021/12/05 13:46:00;;;;;;;3.47;0.80;;;;;;;11.33;54.10;100095.66;4993001;28;20483;-91
2021/12/05 13:48:29;;;;;;;3.58;1.08;;;;;;;11.66;53.44;100094.03;4993115;28;20053;-90
2021/12/05 13:51:05;;;;;;;1.67;0.70;;;;;;;11.81;53.25;100095.47;4992298;28;20026;-91
2021/12/05 13:53:36;;;;;;;5.60;0.93;;;;;;;11.48;53.49;100098.91;4992892;28;20336;-91
2021/12/05 13:56:11;;;;;;;5.78;0.90;;;;;;;11.51;53.70;100099.53;4975405;28;20029;-90
2021/12/05 13:58:42;;;;;;;6.45;1.00;;;;;;;11.73;53.44;100100.50;4992373;28;20081;-90
2021/12/05 14:01:29;;;;;;;7.38;0.85;;;;;;;11.65;53.18;100101.09;4992319;28;20022;-90
2021/12/05 14:04:07;;;;;;;5.85;1.38;;;;;;;11.72;53.06;100096.19;4991969;28;20030;-91
2021/12/05 14:07:14;;;;;;;5.68;0.73;;;;;;;11.69;53.00;100099.06;4992588;28;20042;-92
2021/12/05 14:09:43;;;;;;;4.72;1.05;;;;;;;11.55;53.61;100094.00;4948371;28;20065;-91
2021/12/05 14:12:30;;;;;;;3.30;1.17;;;;;;;11.58;53.24;100099.03;4987895;28;20034;-91
2021/12/05 14:15:04;;;;;;;4.00;1.00;;;;;;;11.63;53.80;100092.47;4987778;28;20045;-90
2021/12/05 14:17:33;;;;;;;5.00;0.77;;;;;;;11.70;53.50;100092.81;4996060;28;20365;-92
2021/12/05 14:20:00;;;;;;;4.28;0.90;;;;;;;11.57;53.75;100090.31;4995758;28;20546;-90
2021/12/05 14:22:29;;;;;;;3.90;1.48;;;;;;;11.25;53.99;100103.28;4996344;28;20185;-91
2021/12/05 14:24:57;;;;;;;2.65;0.80;;;;;;;11.17;54.79;100105.66;4996182;28;20031;-91
2021/12/05 14:27:27;;;;;;;5.47;1.00;;;;;;;11.13;54.63;100126.06;4996142;28;20030;-91
2021/12/05 14:29:53;;;;;;;2.95;0.95;;;;;;;11.04;55.02;100130.22;4996820;28;20030;-92
2021/12/05 14:32:32;;;;;;;3.20;0.80;;;;;;;11.29;54.27;100131.00;4996123;28;20037;-90
2021/12/05 14:35:05;;;;;;;8.45;1.25;;;;;;;11.06;54.74;100141.47;4995952;28;20042;-91
2021/12/05 14:37:33;;;;;;;6.63;1.00;;;;;;;11.09;54.97;100135.97;4996161;28;20113;-91
2021/12/05 14:40:03;;;;;;;6.05;2.10;;;;;;;11.22;54.40;100135.06;4989389;28;20042;-91
2021/12/05 14:42:32;;;;;;;3.35;0.80;;;;;;;10.90;55.07;100135.66;4995713;28;20026;-92
2021/12/05 14:45:02;;;;;;;4.07;1.00;;;;;;;10.77;55.21;100138.34;4995305;28;20170;-92
2021/12/05 14:47:30;;;;;;;3.58;0.82;;;;;;;10.89;55.26;100150.56;4991483;28;20026;-90
2021/12/05 14:49:59;;;;;;;4.63;1.25;;;;;;;10.78;55.41;100154.94;4995528;28;20451;-91
2021/12/05 14:52:27;;;;;;;6.28;1.05;;;;;;;10.67;55.66;100168.84;4995739;28;20104;-91
2021/12/05 14:54:54;;;;;;;6.47;1.25;;;;;;;10.92;55.19;100173.16;4995060;28;20396;-91
2021/12/05 14:57:23;;;;;;;3.50;1.08;;;;;;;10.83;55.21;100172.03;4995616;28;20022;-91
2021/12/05 14:59:52;;;;;;;6.20;1.30;;;;;;;10.85;55.22;100177.19;4995853;28;20034;-91
2021/12/05 15:02:19;;;;;;;6.60;1.10;;;;;;;10.91;55.61;100181.97;4995114;28;20030;-90
2021/12/05 15:04:52;;;;;;;7.90;1.10;;;;;;;10.96;55.67;100187.75;4995611;28;20109;-90
2021/12/05 15:07:22;;;;;;;5.97;1.30;;;;;;;10.85;55.68;100190.31;4995775;28;20027;-90
2021/12/05 15:09:54;;;;;;;9.50;1.30;;;;;;;10.75;56.11;100197.19;4995505;28;20022;-90
2021/12/05 15:12:26;;;;;;;5.75;1.17;;;;;;;10.87;55.37;100198.91;4995577;28;20030;-90
2021/12/05 15:14:57;;;;;;;5.55;1.10;;;;;;;10.77;55.74;100205.78;4995430;28;20100;-90
2021/12/05 15:17:27;;;;;;;3.90;0.90;;;;;;;10.74;55.79;100212.09;4992059;28;20034;-90
2021/12/05 15:19:59;;;;;;;5.55;0.90;;;;;;;10.94;55.63;100209.81;4995235;28;20475;-90
2021/12/05 15:22:25;;;;;;;4.43;1.23;;;;;;;10.87;55.61;100215.50;4995077;28;20026;-90
2021/12/05 15:24:55;;;;;;;9.57;1.15;;;;;;;10.65;56.25;100215.38;4995090;28;20022;-91
2021/12/05 15:27:25;;;;;;;4.72;1.35;;;;;;;10.79;55.98;100217.03;4995159;28;20027;-90
2021/12/05 15:29:56;;;;;;;3.55;1.15;;;;;;;10.91;55.67;100216.97;4995112;28;20073;-90
2021/12/05 15:32:28;;;;;;;4.63;1.40;;;;;;;10.76;55.93;100233.00;4994561;28;20105;-90
2021/12/05 15:34:56;;;;;;;4.80;1.17;;;;;;;10.69;56.01;100228.19;4994633;28;20027;-91
2021/12/05 15:37:23;;;;;;;6.03;1.15;;;;;;;10.80;55.97;100230.06;4995031;28;20030;-91
2021/12/05 15:39:51;;;;;;;9.60;1.88;;;;;;;10.92;55.55;100238.84;4995236;28;20038;-90
2021/12/05 15:42:33;;;;;;;13.13;1.05;;;;;;;10.96;55.27;100237.66;4994898;28;20030;-90
2021/12/05 15:45:01;;;;;;;6.65;1.40;;;;;;;11.13;55.15;100238.22;4994901;28;20093;-91
2021/12/05 15:47:30;;;;;;;8.02;2.15;;;;;;;11.02;54.91;100242.47;4993875;28;20136;-91
2021/12/05 15:50:00;;;;;;;5.72;1.00;;;;;;;11.11;54.87;100252.28;4994475;28;20053;-91
2021/12/05 15:52:32;;;;;;;4.60;0.88;;;;;;;11.18;54.65;100254.50;4994663;28;20036;-91
2021/12/05 15:54:58;;;;;;;8.05;1.77;;;;;;;11.01;55.11;100259.16;4994720;28;20026;-91
2021/12/05 15:57:31;;;;;;;6.90;1.27;;;;;;;11.02;54.91;100271.38;4994940;28;20415;-91
2021/12/05 16:00:00;;;;;;;9.68;1.58;;;;;;;11.20;54.84;100282.34;4977345;28;20026;-90
2021/12/05 16:02:26;;;;;;;4.03;1.08;;;;;;;10.83;55.29;100282.34;4993477;28;20361;-91
2021/12/05 16:04:52;;;;;;;5.68;1.40;;;;;;;11.13;54.90;100291.59;4994506;28;20041;-90
2021/12/05 16:07:18;;;;;;;4.70;1.10;;;;;;;11.28;54.51;100290.50;4993668;28;20045;-90
2021/12/05 16:09:45;;;;;;;6.65;1.50;;;;;;;11.06;54.69;100295.66;4994238;28;20026;-91
2021/12/05 16:12:16;;;;;;;4.07;1.42;;;;;;;11.18;54.90;100307.06;4993402;28;20026;-92
2021/12/05 16:14:45;;;;;;;6.65;1.83;;;;;;;11.10;54.45;100297.94;4993762;28;20053;-91
2021/12/05 16:17:25;;;;;;;4.63;1.15;;;;;;;11.14;54.76;100306.44;4993308;28;20518;-91
2021/12/05 16:20:26;;;;;;;5.03;1.30;;;;;;;11.20;54.81;100305.16;4993855;28;20034;-90
2021/12/05 16:23:02;;;;;;;9.38;1.63;;;;;;;10.95;55.27;100296.41;4967047;28;20702;-91
2021/12/05 16:25:29;;;;;;;6.13;1.35;;;;;;;11.15;55.11;100296.75;4975540;28;20023;-90
2021/12/05 16:28:02;;;;;;;7.10;1.75;;;;;;;11.08;54.97;100302.47;4973834;28;20082;-91
2021/12/05 16:30:33;;;;;;;8.57;1.27;;;;;;;11.00;55.38;100317.06;4978073;28;20027;-91
2021/12/05 16:33:00;;;;;;;8.65;1.17;;;;;;;11.02;55.26;100329.19;4983284;28;20110;-90
2021/12/05 16:35:33;;;;;;;5.97;0.90;;;;;;;11.21;54.77;100335.72;4993911;28;20105;-91
2021/12/05 16:37:59;;;;;;;7.70;1.38;;;;;;;11.08;54.98;100334.00;4993864;28;20034;-90
2021/12/05 16:40:26;;;;;;;7.78;2.08;;;;;;;11.12;54.81;100339.88;4993634;28;20031;-91
2021/12/05 16:43:21;;;;;;;9.32;1.35;;;;;;;11.17;54.73;100345.63;4993119;28;20109;-91
2021/12/05 16:45:46;;;;;;;6.47;1.58;;;;;;;11.03;55.00;100351.84;4972559;28;20051;-91
2021/12/05 16:48:16;;;;;;;8.07;1.30;;;;;;;10.87;55.69;100361.78;4993594;28;20033;-90
2021/12/05 16:50:42;;;;;;;7.13;1.08;;;;;;;10.68;56.38;100354.31;4993495;28;20061;-90
2021/12/05 16:53:10;;;;;;;7.30;1.10;;;;;;;10.77;55.76;100352.84;4993228;28;20054;-90
2021/12/05 16:55:41;;;;;;;5.50;1.33;;;;;;;10.76;55.82;100366.91;4993294;28;20113;-90
2021/12/05 16:58:16;;;;;;;4.53;0.75;;;;;;;10.50;56.15;100372.19;4973933;28;20388;-91
2021/12/05 17:00:48;;;;;;;4.38;0.93;;;;;;;10.47;56.57;100377.66;4976751;28;20489;-90
2021/12/05 17:03:18;;;;;;;9.25;1.50;;;;;;;10.63;56.67;100374.81;4973536;28;20038;-91
2021/12/05 17:05:48;;;;;;;7.13;1.73;;;;;;;10.42;56.96;100379.75;4973618;28;20037;-91
2021/12/05 17:08:17;;;;;;;5.10;1.30;;;;;;;10.48;56.64;100382.78;4973748;28;20030;-91
2021/12/05 17:11:05;;;;;;;9.30;1.55;;;;;;;10.46;56.53;100383.84;4973952;28;20381;-90